createdAt,value
2022-09-17T00:00:51.808Z,2.87
2022-09-17T00:03:18.972Z,2.80
2022-09-17T00:05:45.773Z,2.90
2022-09-17T00:08:15.012Z,3.13
2022-09-17T00:10:44.269Z,3.57
2022-09-17T00:13:11.216Z,3.10
2022-09-17T00:15:44.020Z,3.50
2022-09-17T00:18:11.285Z,3.20
2022-09-17T00:20:40.041Z,3.47
2022-09-17T00:23:08.102Z,3.23
2022-09-17T00:25:38.101Z,3.60
2022-09-17T00:28:04.900Z,3.43
2022-09-17T00:30:31.786Z,3.63
2022-09-17T00:32:58.538Z,3.70
2022-09-17T00:35:25.967Z,3.00
2022-09-17T00:37:52.827Z,3.43
2022-09-17T00:40:20.979Z,3.40
2022-09-17T00:42:48.089Z,2.57
2022-09-17T00:45:15.328Z,3.10
2022-09-17T00:47:58.204Z,2.57
2022-09-17T00:50:40.675Z,2.57
2022-09-17T00:53:14.408Z,2.70
2022-09-17T00:55:46.018Z,2.80
2022-09-17T00:58:15.410Z,2.53
2022-09-17T01:00:42.251Z,2.60
2022-09-17T01:03:09.379Z,2.60
2022-09-17T01:06:05.733Z,2.73
2022-09-17T01:08:44.658Z,1.83
2022-09-17T01:11:35.890Z,2.00
2022-09-17T01:14:30.741Z,2.07
2022-09-17T01:17:08.840Z,1.87
2022-09-17T01:19:44.442Z,1.77
2022-09-17T01:22:23.127Z,1.67
2022-09-17T01:25:24.994Z,1.90
2022-09-17T01:28:21.021Z,1.90
2022-09-17T01:31:05.803Z,1.87
2022-09-17T01:33:41.346Z,1.30
2022-09-17T01:36:41.796Z,1.63
2022-09-17T01:39:34.304Z,1.30
2022-09-17T01:42:15.452Z,1.60
2022-09-17T01:44:52.682Z,1.53
2022-09-17T01:47:39.513Z,1.80
2022-09-17T01:50:26.856Z,1.80
2022-09-17T01:52:56.534Z,2.10
2022-09-17T01:55:29.746Z,1.80
2022-09-17T01:57:59.079Z,1.80
2022-09-17T02:00:25.874Z,1.60
2022-09-17T02:03:02.826Z,2.00
2022-09-17T02:05:48.686Z,1.47
2022-09-17T02:08:23.020Z,2.17
2022-09-17T02:10:57.605Z,1.70
2022-09-17T02:13:42.597Z,1.70
2022-09-17T02:16:25.185Z,2.00
2022-09-17T02:19:17.251Z,2.50
2022-09-17T02:22:02.469Z,2.50
2022-09-17T02:24:44.134Z,2.23
2022-09-17T02:27:24.610Z,2.10
2022-09-17T02:29:52.082Z,2.40
2022-09-17T02:32:18.725Z,2.53
2022-09-17T02:34:46.115Z,2.27
2022-09-17T02:37:12.774Z,2.23
2022-09-17T02:39:39.587Z,2.60
2022-09-17T02:42:25.760Z,1.97
2022-09-17T02:45:59.979Z,2.40
2022-09-17T02:48:46.851Z,2.17
2022-09-17T02:51:27.751Z,2.00
2022-09-17T02:54:13.147Z,1.97
2022-09-17T02:56:52.057Z,2.20
2022-09-17T02:59:24.895Z,2.40
2022-09-17T03:02:17.813Z,2.47
2022-09-17T03:04:46.953Z,2.10
2022-09-17T03:07:14.477Z,2.20
2022-09-17T03:09:43.446Z,1.90
2022-09-17T03:12:13.990Z,2.33
2022-09-17T03:14:40.693Z,3.03
2022-09-17T03:17:07.849Z,2.30
2022-09-17T03:19:34.509Z,2.00
2022-09-17T03:22:01.170Z,2.10
2022-09-17T03:24:27.849Z,1.77
2022-09-17T03:26:55.205Z,2.80
2022-09-17T03:29:22.025Z,2.17
2022-09-17T03:31:48.803Z,2.30
2022-09-17T03:34:15.484Z,2.30
2022-09-17T03:36:42.221Z,2.20
2022-09-17T03:39:08.965Z,1.67
2022-09-17T03:41:35.648Z,1.90
2022-09-17T03:44:02.761Z,2.73
2022-09-17T03:46:29.511Z,2.20
2022-09-17T03:48:56.417Z,2.27
2022-09-17T03:51:23.089Z,1.97
2022-09-17T03:53:49.882Z,2.47
2022-09-17T03:56:17.832Z,2.33
2022-09-17T03:58:44.650Z,2.30
2022-09-17T04:01:11.487Z,2.10
2022-09-17T04:03:39.145Z,2.00
2022-09-17T04:06:06.025Z,2.50
2022-09-17T04:08:32.768Z,2.20
2022-09-17T04:10:59.529Z,2.07
2022-09-17T04:13:26.317Z,2.40
2022-09-17T04:15:53.066Z,1.80
2022-09-17T04:18:19.808Z,2.00
2022-09-17T04:20:46.465Z,1.90
2022-09-17T04:23:13.641Z,2.23
2022-09-17T04:25:40.403Z,2.30
2022-09-17T04:28:07.085Z,2.27
2022-09-17T04:30:33.803Z,1.90
2022-09-17T04:33:00.633Z,2.37
2022-09-17T04:35:27.501Z,2.00
2022-09-17T04:37:55.685Z,2.60
2022-09-17T04:40:23.895Z,1.73
2022-09-17T04:42:55.460Z,1.60
2022-09-17T04:45:23.177Z,2.37
2022-09-17T04:47:52.672Z,1.80
2022-09-17T04:50:20.173Z,2.27
2022-09-17T04:52:47.385Z,1.47
2022-09-17T04:55:15.329Z,1.37
2022-09-17T04:57:52.986Z,1.53
2022-09-17T05:00:22.124Z,1.63
2022-09-17T05:02:51.963Z,1.60
2022-09-17T05:05:19.083Z,1.63
2022-09-17T05:07:46.264Z,1.73
2022-09-17T05:10:15.091Z,1.70
2022-09-17T05:12:41.788Z,1.90
2022-09-17T05:15:08.618Z,1.60
2022-09-17T05:17:35.417Z,1.93
2022-09-17T05:20:02.320Z,1.77
2022-09-17T05:22:29.097Z,1.60
2022-09-17T05:24:55.796Z,1.57
2022-09-17T05:27:22.658Z,1.73
2022-09-17T05:29:49.361Z,1.50
2022-09-17T05:32:16.516Z,1.67
2022-09-17T05:34:43.334Z,1.70
2022-09-17T05:37:13.960Z,1.60
2022-09-17T05:39:40.721Z,1.67
2022-09-17T05:42:07.509Z,2.17
2022-09-17T05:44:34.149Z,1.73
2022-09-17T05:47:00.933Z,1.93
2022-09-17T05:49:27.683Z,1.90
2022-09-17T05:51:54.447Z,1.80
2022-09-17T05:54:21.099Z,2.10
2022-09-17T05:56:47.766Z,1.80
2022-09-17T05:59:15.530Z,2.13
2022-09-17T06:01:42.544Z,1.67
2022-09-17T06:04:09.797Z,2.03
2022-09-17T06:06:37.815Z,1.73
2022-09-17T06:09:05.934Z,1.70
2022-09-17T06:11:32.967Z,1.53
2022-09-17T06:14:00.194Z,1.70
2022-09-17T06:16:27.163Z,1.70
2022-09-17T06:18:58.722Z,1.70
2022-09-17T06:21:25.417Z,1.70
2022-09-17T06:23:52.777Z,1.97
2022-09-17T06:26:19.801Z,1.90
2022-09-17T06:28:46.590Z,1.53
2022-09-17T06:31:13.623Z,1.67
2022-09-17T06:33:41.241Z,1.67
2022-09-17T06:36:13.693Z,1.50
2022-09-17T06:38:41.585Z,1.67
2022-09-17T06:41:08.673Z,1.53
2022-09-17T06:43:35.423Z,1.63
2022-09-17T06:46:05.977Z,1.77
2022-09-17T06:48:35.109Z,1.43
2022-09-17T06:51:04.387Z,1.50
2022-09-17T06:53:32.049Z,1.30
2022-09-17T06:56:05.157Z,1.33
2022-09-17T06:58:33.929Z,1.27
2022-09-17T07:01:01.690Z,1.70
2022-09-17T07:03:29.689Z,1.40
2022-09-17T07:05:57.288Z,1.40
2022-09-17T07:08:24.356Z,1.90
2022-09-17T07:10:51.074Z,1.20
2022-09-17T07:13:18.049Z,1.50
2022-09-17T07:15:55.878Z,1.47
2022-09-17T07:18:23.417Z,2.00
2022-09-17T07:21:01.316Z,1.40
2022-09-17T07:23:30.874Z,1.80
2022-09-17T07:26:00.047Z,1.60
2022-09-17T07:28:28.745Z,1.50
2022-09-17T07:30:56.368Z,1.60
2022-09-17T07:33:26.116Z,1.40
2022-09-17T07:35:58.324Z,1.30
2022-09-17T07:38:25.596Z,1.27
2022-09-17T07:40:57.969Z,1.50
2022-09-17T07:43:26.362Z,1.90
2022-09-17T07:45:53.566Z,1.77
2022-09-17T07:48:21.190Z,1.70
2022-09-17T07:50:48.333Z,1.43
2022-09-17T07:53:15.480Z,2.00
2022-09-17T07:55:42.613Z,2.00
2022-09-17T07:58:09.579Z,1.57
2022-09-17T08:00:36.647Z,1.40
2022-09-17T08:03:03.510Z,1.37
2022-09-17T08:05:32.625Z,1.20
2022-09-17T08:07:59.364Z,1.50
2022-09-17T08:10:27.138Z,2.07
2022-09-17T08:12:58.364Z,1.37
2022-09-17T08:15:26.009Z,1.43
2022-09-17T08:17:53.270Z,1.20
2022-09-17T08:20:20.391Z,1.93
2022-09-17T08:22:50.197Z,1.03
2022-09-17T08:25:17.290Z,1.93
2022-09-17T08:27:44.229Z,1.70
2022-09-17T08:30:11.219Z,1.70
2022-09-17T08:32:38.317Z,1.30
2022-09-17T08:35:05.280Z,1.60
2022-09-17T08:37:31.987Z,1.43
2022-09-17T08:39:58.767Z,1.60
2022-09-17T08:42:51.521Z,1.57
2022-09-17T08:45:19.313Z,1.50
2022-09-17T08:47:48.203Z,1.40
2022-09-17T08:50:27.771Z,1.90
2022-09-17T08:53:17.808Z,1.57
2022-09-17T08:56:00.138Z,1.70
2022-09-17T08:58:40.375Z,1.43
2022-09-17T09:01:14.406Z,1.47
2022-09-17T09:04:03.877Z,1.30
2022-09-17T09:06:37.787Z,1.50
2022-09-17T09:09:15.408Z,1.87
2022-09-17T09:11:44.067Z,1.53
2022-09-17T09:14:18.376Z,1.20
2022-09-17T09:16:45.902Z,1.60
2022-09-17T09:19:21.446Z,1.30
2022-09-17T09:22:26.706Z,1.53
2022-09-17T09:25:23.398Z,2.00
2022-09-17T09:28:21.068Z,1.63
2022-09-17T09:31:18.495Z,1.70
2022-09-17T09:33:48.067Z,1.83
2022-09-17T09:36:21.554Z,1.40
2022-09-17T09:39:04.262Z,1.33
2022-09-17T09:41:43.848Z,1.53
2022-09-17T09:44:15.766Z,1.33
2022-09-17T09:47:04.856Z,1.60
2022-09-17T09:49:53.577Z,1.87
2022-09-17T09:52:41.079Z,2.10
2022-09-17T09:55:35.501Z,2.10
2022-09-17T09:58:12.457Z,1.73
2022-09-17T10:00:42.505Z,2.20
2022-09-17T10:03:18.738Z,1.70
2022-09-17T10:06:03.195Z,1.40
2022-09-17T10:08:37.145Z,1.63
2022-09-17T10:11:25.841Z,1.77
2022-09-17T10:14:24.757Z,1.80
2022-09-17T10:17:21.569Z,1.93
2022-09-17T10:20:13.616Z,1.90
2022-09-17T10:22:46.172Z,2.40
2022-09-17T10:25:32.321Z,2.00
2022-09-17T10:28:01.910Z,1.87
2022-09-17T10:30:29.069Z,1.40
2022-09-17T10:33:23.445Z,1.23
2022-09-17T10:36:01.881Z,1.30
2022-09-17T10:38:38.307Z,1.50
2022-09-17T10:41:24.780Z,1.33
2022-09-17T10:43:52.198Z,2.07
2022-09-17T10:46:28.883Z,1.90
2022-09-17T10:49:35.227Z,1.43
2022-09-17T10:52:13.702Z,1.97
2022-09-17T10:55:10.322Z,1.50
2022-09-17T10:58:24.568Z,1.60
2022-09-17T11:01:16.133Z,1.77
2022-09-17T11:04:01.372Z,1.37
2022-09-17T11:06:52.815Z,2.00
2022-09-17T11:09:27.399Z,1.83
2022-09-17T11:12:16.159Z,2.50
2022-09-17T11:15:06.361Z,1.70
2022-09-17T11:17:46.722Z,1.80
2022-09-17T11:20:47.195Z,2.10
2022-09-17T11:23:32.041Z,1.90
2022-09-17T11:26:20.266Z,2.00
2022-09-17T11:28:49.880Z,2.20
2022-09-17T11:31:47.557Z,2.00
2022-09-17T11:34:32.953Z,1.90
2022-09-17T11:37:24.001Z,1.90
2022-09-17T11:39:58.911Z,1.83
2022-09-17T11:42:31.961Z,1.60
2022-09-17T11:45:02.457Z,1.63
2022-09-17T11:47:36.033Z,2.10
2022-09-17T11:50:23.936Z,1.83
2022-09-17T11:53:38.041Z,1.77
2022-09-17T11:56:38.604Z,1.67
2022-09-17T11:59:14.681Z,4.90
2022-09-17T12:01:51.454Z,3.23
2022-09-17T12:04:37.756Z,5.40
2022-09-17T12:07:42.642Z,5.60
2022-09-17T12:10:36.538Z,9.60
2022-09-17T12:13:14.454Z,5.90
2022-09-17T12:15:51.052Z,7.50
2022-09-17T12:18:32.877Z,4.80
2022-09-17T12:21:05.098Z,2.00
2022-09-17T12:23:38.821Z,1.87
2022-09-17T12:26:17.756Z,1.63
2022-09-17T12:29:04.931Z,1.67
2022-09-17T12:31:49.087Z,1.57
2022-09-17T12:34:43.349Z,1.60
2022-09-17T12:37:23.647Z,1.40
2022-09-17T12:39:56.197Z,2.13
2022-09-17T12:42:42.837Z,1.17
2022-09-17T12:45:27.989Z,1.50
2022-09-17T12:48:12.661Z,1.40
2022-09-17T12:51:19.699Z,2.50
2022-09-17T12:54:10.769Z,1.67
2022-09-17T12:57:04.674Z,1.60
2022-09-17T12:59:33.940Z,2.33
2022-09-17T13:02:12.060Z,2.07
2022-09-17T13:05:13.084Z,2.53
2022-09-17T13:07:48.780Z,1.80
2022-09-17T13:10:40.849Z,1.60
2022-09-17T13:13:34.653Z,1.70
2022-09-17T13:16:05.967Z,1.80
2022-09-17T13:19:15.059Z,1.37
2022-09-17T13:22:01.161Z,1.60
2022-09-17T13:24:31.124Z,1.53
2022-09-17T13:27:01.207Z,1.47
2022-09-17T13:29:48.969Z,1.40
2022-09-17T13:32:33.939Z,1.57
2022-09-17T13:35:09.797Z,1.47
2022-09-17T13:37:41.414Z,1.90
2022-09-17T13:40:22.467Z,1.33
2022-09-17T13:42:55.468Z,1.30
2022-09-17T13:45:24.292Z,1.17
2022-09-17T13:47:58.097Z,1.77
2022-09-17T13:50:27.193Z,1.30
2022-09-17T13:52:56.850Z,1.33
2022-09-17T13:55:37.288Z,1.40
2022-09-17T13:58:13.718Z,0.90
2022-09-17T14:00:49.386Z,1.10
2022-09-17T14:03:31.475Z,1.30
2022-09-17T14:06:18.862Z,0.97
2022-09-17T14:08:45.644Z,1.00
2022-09-17T14:11:26.416Z,1.07
2022-09-17T14:14:05.626Z,1.40
2022-09-17T14:16:52.000Z,1.47
2022-09-17T14:19:25.590Z,1.00
2022-09-17T14:21:56.112Z,1.63
2022-09-17T14:24:44.177Z,1.57
2022-09-17T14:27:31.940Z,1.40
2022-09-17T14:30:10.913Z,1.50
2022-09-17T14:32:53.791Z,1.70
2022-09-17T14:35:39.088Z,1.63
2022-09-17T14:38:10.474Z,1.03
2022-09-17T14:40:44.950Z,1.30
2022-09-17T14:43:22.157Z,1.83
2022-09-17T14:45:52.860Z,1.83
2022-09-17T14:48:26.072Z,1.40
2022-09-17T14:50:52.935Z,1.90
2022-09-17T14:53:21.093Z,1.23
2022-09-17T14:55:50.201Z,1.13
2022-09-17T14:58:35.384Z,1.37
2022-09-17T15:01:02.210Z,1.40
2022-09-17T15:03:28.979Z,0.90
2022-09-17T15:05:55.754Z,1.13
2022-09-17T15:08:30.261Z,1.27
2022-09-17T15:11:00.531Z,1.20
2022-09-17T15:13:40.336Z,0.77
2022-09-17T15:16:27.435Z,0.83
2022-09-17T15:19:06.769Z,0.90
2022-09-17T15:21:45.293Z,1.03
2022-09-17T15:24:20.699Z,1.60
2022-09-17T15:26:51.879Z,0.80
2022-09-17T15:29:22.915Z,1.00
2022-09-17T15:31:49.894Z,1.37
2022-09-17T15:34:16.808Z,3.30
2022-09-17T15:37:07.413Z,1.40
2022-09-17T15:39:42.733Z,2.20
2022-09-17T15:42:22.834Z,2.20
2022-09-17T15:44:50.257Z,1.83
2022-09-17T15:48:01.729Z,1.10
2022-09-17T15:50:34.052Z,1.17
2022-09-17T15:53:09.438Z,0.93
2022-09-17T15:55:44.512Z,0.90
2022-09-17T15:58:40.676Z,1.00
2022-09-17T16:01:17.043Z,0.67
2022-09-17T16:03:43.947Z,1.20
2022-09-17T16:06:19.814Z,1.10
2022-09-17T16:08:47.765Z,1.07
2022-09-17T16:11:15.199Z,0.80
2022-09-17T16:13:42.244Z,0.80
2022-09-17T16:16:16.509Z,0.90
2022-09-17T16:18:43.264Z,0.90
2022-09-17T16:21:14.993Z,1.00
2022-09-17T16:23:42.312Z,1.20
2022-09-17T16:26:41.942Z,1.00
2022-09-17T16:29:16.213Z,0.90
2022-09-17T16:31:44.655Z,0.83
2022-09-17T16:34:11.515Z,1.10
2022-09-17T16:36:38.948Z,1.10
2022-09-17T16:39:05.821Z,1.27
2022-09-17T16:41:32.539Z,1.00
2022-09-17T16:43:59.522Z,1.00
2022-09-17T16:46:26.524Z,1.10
2022-09-17T16:48:53.389Z,0.80
2022-09-17T16:51:20.138Z,0.90
2022-09-17T16:53:47.008Z,1.30
2022-09-17T16:56:15.397Z,0.70
2022-09-17T16:58:42.387Z,0.77
2022-09-17T17:01:11.037Z,0.80
2022-09-17T17:03:38.377Z,2.20
2022-09-17T17:06:05.677Z,0.97
2022-09-17T17:08:33.502Z,0.80
2022-09-17T17:11:00.965Z,0.67
2022-09-17T17:13:27.926Z,0.97
2022-09-17T17:15:55.092Z,1.20
2022-09-17T17:18:22.900Z,1.20
2022-09-17T17:20:49.987Z,1.07
2022-09-17T17:23:17.086Z,1.60
2022-09-17T17:25:43.983Z,1.00
2022-09-17T17:28:10.953Z,1.13
2022-09-17T17:30:38.550Z,1.13
2022-09-17T17:33:05.537Z,1.10
2022-09-17T17:35:32.534Z,1.03
2022-09-17T17:37:59.345Z,1.00
2022-09-17T17:40:26.772Z,1.23
2022-09-17T17:42:54.819Z,1.00
2022-09-17T17:45:22.022Z,1.33
2022-09-17T17:47:49.011Z,1.40
2022-09-17T17:50:15.926Z,1.17
2022-09-17T17:52:47.805Z,4.77
2022-09-17T17:55:15.648Z,8.40
2022-09-17T17:57:42.434Z,11.20
2022-09-17T18:00:11.004Z,8.10
2022-09-17T18:02:38.089Z,4.43
2022-09-17T18:05:05.208Z,2.13
2022-09-17T18:07:32.171Z,1.50
2022-09-17T18:09:58.943Z,2.30
2022-09-17T18:12:27.067Z,2.53
2022-09-17T18:14:53.966Z,2.30
2022-09-17T18:17:20.813Z,2.17
2022-09-17T18:19:47.563Z,1.73
2022-09-17T18:22:14.271Z,2.03
2022-09-17T18:24:40.960Z,1.17
2022-09-17T18:27:07.723Z,1.83
2022-09-17T18:29:34.545Z,1.10
2022-09-17T18:32:01.425Z,1.30
2022-09-17T18:34:28.161Z,1.20
2022-09-17T18:36:54.974Z,0.80
2022-09-17T18:42:09.190Z,1.20
2022-09-17T18:44:36.057Z,0.80
2022-09-17T18:47:03.053Z,1.20
2022-09-17T18:49:29.766Z,0.80
2022-09-17T18:51:56.585Z,0.80
2022-09-17T18:54:23.363Z,0.90
2022-09-17T18:56:50.022Z,0.73
2022-09-17T18:59:16.759Z,1.70
2022-09-17T19:01:43.493Z,0.80
2022-09-17T19:04:11.360Z,0.80
2022-09-17T19:06:38.203Z,0.87
2022-09-17T19:09:05.736Z,0.70
2022-09-17T19:11:33.948Z,0.80
2022-09-17T19:14:01.536Z,0.93
2022-09-17T19:16:28.342Z,1.00
2022-09-17T19:18:55.061Z,1.63
2022-09-17T19:21:21.958Z,1.10
2022-09-17T19:23:50.800Z,1.23
2022-09-17T19:26:20.358Z,1.60
2022-09-17T19:28:47.366Z,3.40
2022-09-17T19:31:16.784Z,1.07
2022-09-17T19:33:44.496Z,0.83
2022-09-17T19:36:14.292Z,1.10
2022-09-17T19:38:41.537Z,0.87
2022-09-17T19:41:14.887Z,1.07
2022-09-17T19:43:42.129Z,1.20
2022-09-17T19:46:14.965Z,1.70
2022-09-17T19:48:56.070Z,8.77
2022-09-17T19:51:25.465Z,2.33
2022-09-17T19:53:53.115Z,2.70
2022-09-17T19:56:22.961Z,5.00
2022-09-17T19:58:50.553Z,2.40
2022-09-17T20:01:18.177Z,2.47
2022-09-17T20:03:46.527Z,1.57
2022-09-17T20:06:15.374Z,1.10
2022-09-17T20:08:53.061Z,1.20
2022-09-17T20:11:21.888Z,1.10
2022-09-17T20:13:48.723Z,1.10
2022-09-17T20:16:21.056Z,1.37
2022-09-17T20:18:48.884Z,1.27
2022-09-17T20:21:25.109Z,1.10
2022-09-17T20:23:52.444Z,1.27
2022-09-17T20:26:19.153Z,1.63
2022-09-17T20:28:47.419Z,1.53
2022-09-17T20:31:23.216Z,1.40
2022-09-17T20:33:55.207Z,1.33
2022-09-17T20:36:24.989Z,1.20
2022-09-17T20:41:39.468Z,1.50
2022-09-17T20:44:07.140Z,1.67
2022-09-17T20:46:34.185Z,1.17
2022-09-17T20:49:01.178Z,1.43
2022-09-17T20:51:29.761Z,1.27
2022-09-17T20:53:57.777Z,1.23
2022-09-17T20:56:27.197Z,1.20
2022-09-17T20:59:25.038Z,1.17
2022-09-17T21:01:53.459Z,1.23
2022-09-17T21:04:21.757Z,1.30
2022-09-17T21:06:52.555Z,1.63
2022-09-17T21:09:19.959Z,1.13
2022-09-17T21:11:48.626Z,1.10
2022-09-17T21:14:17.238Z,1.20
2022-09-17T21:16:44.856Z,1.40
2022-09-17T21:19:13.375Z,1.40
2022-09-17T21:21:40.078Z,1.70
2022-09-17T21:24:07.497Z,1.40
2022-09-17T21:26:34.515Z,1.60
2022-09-17T21:29:05.861Z,1.50
2022-09-17T21:31:34.571Z,1.20
2022-09-17T21:34:03.557Z,1.20
2022-09-17T21:36:33.727Z,1.00
2022-09-17T21:39:02.951Z,1.20
2022-09-17T21:41:30.091Z,1.27
2022-09-17T21:43:57.046Z,1.00
2022-09-17T21:46:26.421Z,0.90
2022-09-17T21:48:56.781Z,0.80
2022-09-17T21:51:25.963Z,0.70
2022-09-17T21:53:54.841Z,0.90
2022-09-17T21:56:22.242Z,0.80
2022-09-17T21:58:54.650Z,0.80
2022-09-17T22:01:24.868Z,0.60
2022-09-17T22:03:51.842Z,0.77
2022-09-17T22:06:21.479Z,0.67
2022-09-17T22:08:49.743Z,0.90
2022-09-17T22:11:19.166Z,0.87
2022-09-17T22:14:10.801Z,1.00
2022-09-17T22:16:41.820Z,0.70
2022-09-17T22:19:09.561Z,0.77
2022-09-17T22:21:42.338Z,0.70
2022-09-17T22:24:10.765Z,0.60
2022-09-17T22:26:40.581Z,0.80
2022-09-17T22:29:11.361Z,1.10
2022-09-17T22:31:38.988Z,1.00
2022-09-17T22:34:10.750Z,0.67
2022-09-17T22:36:37.656Z,0.70
2022-09-17T22:39:05.432Z,0.80
2022-09-17T22:41:35.111Z,1.00
2022-09-17T22:44:13.629Z,0.80
2022-09-17T22:46:40.961Z,0.70
2022-09-17T22:49:09.907Z,0.90
2022-09-17T22:51:37.182Z,0.70
2022-09-17T22:54:04.530Z,0.80
2022-09-17T22:56:31.422Z,1.00
2022-09-17T22:58:59.016Z,0.70
2022-09-17T23:01:31.148Z,0.87
2022-09-17T23:03:59.733Z,0.70
2022-09-17T23:06:28.756Z,0.80
2022-09-17T23:08:55.805Z,0.70
2022-09-17T23:11:28.523Z,0.80
2022-09-17T23:13:57.760Z,0.80
2022-09-17T23:16:25.493Z,1.00
2022-09-17T23:18:52.450Z,0.93
2022-09-17T23:21:20.082Z,0.80
2022-09-17T23:23:50.010Z,1.00
2022-09-17T23:26:20.691Z,0.90
2022-09-17T23:28:48.141Z,1.00
2022-09-17T23:31:45.919Z,0.90
2022-09-17T23:34:12.966Z,0.83
2022-09-17T23:36:40.189Z,1.07
2022-09-17T23:39:09.216Z,0.83
2022-09-17T23:41:39.873Z,1.00
2022-09-17T23:44:14.571Z,1.10
2022-09-17T23:46:42.774Z,1.20
2022-09-17T23:49:12.365Z,0.90
2022-09-17T23:51:39.337Z,1.43
2022-09-17T23:54:07.232Z,0.80
2022-09-17T23:56:34.953Z,1.07
2022-09-17T23:59:02.352Z,1.00
